This is the latest recevied weather packets stored in our database for station/object OK1ZXS-6. If no packets are shown the sender has not sent any weather packets the latest 1 day(s).
| Time | Temp. | Humidity | Pressure | Rain* | Wind** | Luminosity | Snow |
|---|---|---|---|---|---|---|---|
| 1777957743 | 14.44° C | 62% | - | - | 0.89 m/s, 112° | - | - |
| 1777956843 | 13.33° C | 65% | - | - | 0 m/s | - | - |
| 1777955942 | 11.67° C | 67% | - | - | 0 m/s | - | - |
| 1777955042 | 10.56° C | 70% | - | - | 0 m/s | - | - |
| 1777954142 | 8.89° C | 72% | - | - | 0 m/s | - | - |
| 1777953241 | 8.89° C | 72% | - | - | 0 m/s | - | - |
| 1777952341 | 9.44° C | 70% | - | - | 0 m/s | - | - |
| 1777951441 | 9.44° C | 68% | - | - | 0 m/s | - | - |
| 1777950541 | 10° C | 67% | - | - | 0 m/s | - | - |
| 1777949643 | 9.44° C | 68% | - | - | 0 m/s | - | - |
| 1777948742 | 10° C | 69% | - | - | 0.89 m/s, 90° | - | - |
| 1777946942 | 8.89° C | 72% | - | - | 0 m/s | - | - |
| 1777946043 | 8.89° C | 71% | - | - | 0.45 m/s, 90° | - | - |
| 1777945141 | 8.33° C | 71% | - | - | 0 m/s | - | - |
| 1777944242 | 8.89° C | 70% | - | - | 0 m/s | - | - |
| 1777943341 | 8.89° C | 69% | - | - | 0 m/s | - | - |
| 1777942442 | 8.89° C | 70% | - | - | 0 m/s | - | - |
| 1777941542 | 8.89° C | 70% | - | - | 0 m/s | - | - |
| 1777940642 | 9.44° C | 69% | - | - | 0 m/s | - | - |
| 1777939742 | 10° C | 67% | - | - | 0 m/s | - | - |
| 1777938844 | 10° C | 67% | - | - | 0 m/s | - | - |
* Rain since midnight (hover to see other rain measurements)
** Current wind speed in m/s (hover to see current wind gust speed)